Time;durP1;ratioP1;P1;durP2;ratioP2;P2;SDS_P1;SDS_P2;PMS_P1;PMS_P2;Temp;Humidity;BMP_temperature;BMP_pressure;BME280_temperature;BME280_humidity;BME280_pressure;Samples;Min_cycle;Max_cycle;Signal;HPM_P1;HPM_P2
2022/01/03 00:00:29;;;;;;;16.20;8.60;;;;;;;3.07;91.55;95056.25;5114497;28;20201;-74
2022/01/03 00:02:59;;;;;;;12.45;6.85;;;;;;;3.18;90.97;95057.84;5114069;28;20696;-74
2022/01/03 00:05:27;;;;;;;23.38;8.75;;;;;;;3.14;91.43;95051.44;5114258;28;20213;-75
2022/01/03 00:07:57;;;;;;;18.38;8.20;;;;;;;3.02;90.92;95048.22;5101084;28;20208;-74
2022/01/03 00:10:25;;;;;;;20.00;9.15;;;;;;;5.10;97.56;95031.84;5113854;28;20668;-73
2022/01/03 00:12:52;;;;;;;13.85;7.18;;;;;;;4.12;92.87;95032.84;5113933;28;20636;-73
2022/01/03 00:15:20;;;;;;;17.13;8.68;;;;;;;3.64;90.97;95039.00;5101736;28;20775;-74
2022/01/03 00:17:48;;;;;;;17.73;7.90;;;;;;;3.18;90.75;95033.75;5112378;28;20250;-73
2022/01/03 00:20:16;;;;;;;17.67;9.07;;;;;;;3.15;91.97;95034.28;5112965;27;20198;-73
2022/01/03 00:22:49;;;;;;;16.58;8.82;;;;;;;3.17;92.27;95029.47;5113570;28;20201;-73
2022/01/03 00:25:19;;;;;;;18.48;9.00;;;;;;;3.11;91.88;95019.88;5113084;28;20206;-73
2022/01/03 00:27:53;;;;;;;19.25;8.90;;;;;;;3.07;90.94;95014.25;5112004;28;20197;-74
2022/01/03 00:30:21;;;;;;;17.63;8.80;;;;;;;2.94;91.50;95003.31;5110942;28;20222;-74
2022/01/03 00:32:51;;;;;;;18.30;8.15;;;;;;;2.94;91.26;95008.66;5110222;28;20193;-73
2022/01/03 00:35:18;;;;;;;20.42;8.32;;;;;;;2.83;91.40;94999.84;5113066;28;20229;-73
2022/01/03 00:37:46;;;;;;;19.80;9.20;;;;;;;2.85;92.17;95003.84;5112502;28;20560;-73
2022/01/03 00:40:14;;;;;;;17.45;8.48;;;;;;;2.92;91.85;95005.44;5113001;28;20205;-73
2022/01/03 00:42:43;;;;;;;15.00;8.68;;;;;;;2.83;91.83;95014.03;5112438;28;20264;-73
2022/01/03 00:45:10;;;;;;;16.83;8.38;;;;;;;2.66;92.17;95021.53;5112757;28;20625;-73
2022/01/03 00:47:38;;;;;;;19.50;8.57;;;;;;;2.56;92.96;95020.72;5112883;28;20668;-73
2022/01/03 00:50:07;;;;;;;15.30;8.30;;;;;;;2.34;91.76;95047.69;5112417;28;20202;-73
2022/01/03 00:52:34;;;;;;;20.48;9.98;;;;;;;2.35;92.08;95033.25;5112887;28;20660;-74
2022/01/03 00:55:01;;;;;;;22.40;10.43;;;;;;;2.48;91.42;95043.44;5113181;28;20202;-73
2022/01/03 00:57:38;;;;;;;19.00;9.27;;;;;;;2.57;91.52;95036.50;5113035;28;20784;-72
2022/01/03 01:00:09;;;;;;;18.40;8.68;;;;;;;2.63;91.68;95024.72;5099114;28;20198;-72
2022/01/03 01:02:38;;;;;;;20.02;10.30;;;;;;;2.51;91.27;95021.50;5112301;28;20292;-72
2022/01/03 01:05:06;;;;;;;20.77;9.80;;;;;;;2.38;91.47;95012.16;5108690;28;20233;-73
2022/01/03 01:07:34;;;;;;;18.23;9.43;;;;;;;2.43;91.88;94998.00;5106368;28;20206;-73
2022/01/03 01:10:02;;;;;;;14.38;7.68;;;;;;;2.58;91.36;94979.28;5111808;28;20212;-73
2022/01/03 01:12:31;;;;;;;19.35;9.43;;;;;;;2.50;91.51;94985.16;5097582;28;20732;-74
2022/01/03 01:14:58;;;;;;;18.30;9.20;;;;;;;2.51;91.96;94984.09;5102106;28;20817;-74
2022/01/03 01:17:29;;;;;;;21.05;10.02;;;;;;;2.55;92.45;94985.16;5104638;28;20648;-74
2022/01/03 01:19:58;;;;;;;18.73;9.18;;;;;;;2.55;92.37;94974.47;5090532;28;20199;-72
2022/01/03 01:22:25;;;;;;;24.92;9.80;;;;;;;2.60;92.56;94969.09;5108826;28;20590;-72
2022/01/03 01:25:21;;;;;;;17.77;9.35;;;;;;;2.64;92.77;94988.88;5111727;28;20281;-74
2022/01/03 01:27:49;;;;;;;24.50;10.10;;;;;;;2.62;92.80;94985.69;5098408;28;20560;-73
2022/01/03 01:30:16;;;;;;;22.15;11.30;;;;;;;2.61;92.96;94986.75;5111583;28;20224;-73
2022/01/03 01:32:48;;;;;;;18.50;9.93;;;;;;;2.65;92.88;94979.81;5111582;28;20194;-73
2022/01/03 01:35:16;;;;;;;19.60;10.07;;;;;;;2.73;92.77;94979.25;5097827;28;20214;-74
2022/01/03 01:37:47;;;;;;;24.15;10.45;;;;;;;2.72;92.38;94968.84;5111017;28;20198;-72
2022/01/03 01:40:15;;;;;;;25.65;11.38;;;;;;;2.79;92.04;94964.81;5111536;28;20193;-74
2022/01/03 01:42:46;;;;;;;19.83;10.10;;;;;;;2.71;91.96;94970.72;5112117;28;20240;-72
2022/01/03 01:45:18;;;;;;;22.75;10.73;;;;;;;2.78;91.82;94973.09;5112018;28;20236;-74
2022/01/03 01:47:49;;;;;;;21.88;9.27;;;;;;;2.73;92.08;94965.09;5112397;28;20190;-74
2022/01/03 01:50:16;;;;;;;18.77;8.82;;;;;;;2.62;91.73;94953.59;5106366;28;20238;-74
2022/01/03 01:52:45;;;;;;;11.13;5.88;;;;;;;2.94;91.65;94960.50;5103355;28;20201;-73
2022/01/03 01:55:16;;;;;;;22.40;9.05;;;;;;;2.90;91.91;94965.56;5112183;28;20229;-73
2022/01/03 01:57:56;;;;;;;19.02;8.57;;;;;;;2.71;92.32;94973.38;5111386;28;20253;-73
2022/01/03 02:00:24;;;;;;;19.10;7.90;;;;;;;2.89;92.82;94968.53;5100768;28;20232;-73
2022/01/03 02:03:12;;;;;;;24.17;9.45;;;;;;;2.75;92.60;94968.28;5111981;28;20255;-73
2022/01/03 02:05:41;;;;;;;25.25;10.25;;;;;;;2.87;91.98;94965.34;5111886;28;20216;-73
2022/01/03 02:08:15;;;;;;;19.02;9.23;;;;;;;2.83;92.06;94955.19;5111469;28;20201;-73
2022/01/03 02:10:44;;;;;;;23.35;10.57;;;;;;;2.77;91.71;94958.91;5098198;28;20199;-73
2022/01/03 02:13:12;;;;;;;24.17;9.98;;;;;;;2.73;91.28;94954.41;5098652;28;20425;-73
2022/01/03 02:15:44;;;;;;;16.70;7.63;;;;;;;2.91;90.42;94953.00;5111597;28;20197;-73
2022/01/03 02:18:13;;;;;;;17.88;9.35;;;;;;;2.81;91.37;94925.22;5099609;28;20212;-73
2022/01/03 02:20:41;;;;;;;16.38;7.95;;;;;;;2.79;91.83;94922.00;5111318;28;20200;-73
2022/01/03 02:23:09;;;;;;;19.42;8.73;;;;;;;2.80;92.10;94912.91;5111301;28;20216;-73
2022/01/03 02:25:36;;;;;;;18.48;9.85;;;;;;;2.83;92.49;94903.53;5109452;28;20252;-73
2022/01/03 02:28:03;;;;;;;18.02;9.05;;;;;;;2.90;92.19;94903.25;5091095;28;20724;-74
2022/01/03 02:30:31;;;;;;;15.52;8.27;;;;;;;2.77;92.27;94897.41;5107135;28;20205;-74
2022/01/03 02:32:59;;;;;;;20.23;9.60;;;;;;;2.82;91.83;94889.38;5111791;28;20198;-74
2022/01/03 02:35:26;;;;;;;15.23;8.15;;;;;;;2.83;92.04;94896.31;5111517;28;20337;-73
2022/01/03 02:37:55;;;;;;;26.45;9.63;;;;;;;2.80;92.80;94902.22;5111533;28;20559;-73
2022/01/03 02:40:22;;;;;;;21.35;8.20;;;;;;;2.82;92.98;94904.63;5110777;28;20205;-73
2022/01/03 02:42:50;;;;;;;12.82;6.70;;;;;;;2.44;92.04;94906.03;5111407;28;20217;-73
2022/01/03 02:45:19;;;;;;;15.77;7.38;;;;;;;2.08;92.79;94922.06;5098074;28;20229;-73
2022/01/03 02:47:49;;;;;;;13.38;7.68;;;;;;;2.07;93.81;94917.81;5111425;28;20201;-73
2022/01/03 02:50:17;;;;;;;22.65;10.80;;;;;;;2.03;94.29;94919.44;5111082;28;20185;-73
2022/01/03 02:52:45;;;;;;;22.15;10.38;;;;;;;2.04;94.37;94914.88;5110874;28;20205;-74
2022/01/03 02:55:14;;;;;;;18.83;10.18;;;;;;;2.19;94.26;94922.88;5111189;28;20213;-73
2022/01/03 02:57:43;;;;;;;30.75;11.43;;;;;;;2.29;94.23;94911.41;5111336;28;20434;-73
2022/01/03 03:00:13;;;;;;;22.77;10.13;;;;;;;2.29;93.54;94916.75;5111273;28;20219;-72
2022/01/03 03:02:40;;;;;;;19.45;9.82;;;;;;;2.30;93.06;94908.47;5110029;28;20201;-72
2022/01/03 03:05:09;;;;;;;18.42;8.90;;;;;;;2.35;93.04;94904.97;5099114;28;20236;-72
2022/01/03 03:07:37;;;;;;;18.98;10.48;;;;;;;2.39;92.73;94903.38;5110949;28;20209;-73
2022/01/03 03:10:06;;;;;;;19.88;9.13;;;;;;;2.52;92.25;94889.44;5110146;28;20541;-73
2022/01/03 03:12:35;;;;;;;21.25;9.93;;;;;;;2.53;92.38;94884.91;5111024;28;20224;-73
2022/01/03 03:15:02;;;;;;;18.65;10.05;;;;;;;2.70;93.02;94891.53;5111172;28;20201;-73
2022/01/03 03:17:29;;;;;;;24.08;10.30;;;;;;;2.82;92.60;94884.03;5107814;28;20641;-73
2022/01/03 03:19:58;;;;;;;19.90;9.43;;;;;;;2.55;92.19;94896.94;5100375;28;20205;-73
2022/01/03 03:22:26;;;;;;;18.55;10.38;;;;;;;2.73;92.99;94885.63;5110180;28;20706;-73
2022/01/03 03:25:01;;;;;;;16.65;9.57;;;;;;;2.91;93.02;94891.47;5110454;28;20225;-73
2022/01/03 03:27:28;;;;;;;21.65;9.85;;;;;;;2.97;92.29;94890.41;5110759;28;20212;-73
2022/01/03 03:29:57;;;;;;;20.27;10.52;;;;;;;2.82;91.68;94893.91;5110889;28;20625;-73
2022/01/03 03:32:26;;;;;;;22.25;9.55;;;;;;;2.63;91.65;94899.03;5110464;28;20204;-73
2022/01/03 03:34:53;;;;;;;16.05;9.20;;;;;;;2.64;91.99;94906.00;5110195;28;20228;-73
2022/01/03 03:37:20;;;;;;;19.92;9.93;;;;;;;2.77;92.45;94901.94;5110172;28;20283;-73
2022/01/03 03:39:47;;;;;;;26.27;9.88;;;;;;;2.87;91.67;94887.75;5110333;28;20201;-73
2022/01/03 03:42:16;;;;;;;17.23;9.73;;;;;;;2.83;90.72;94890.97;5109978;28;20261;-73
2022/01/03 03:44:43;;;;;;;18.80;9.57;;;;;;;2.82;90.92;94867.97;5110598;28;20210;-73
2022/01/03 03:47:11;;;;;;;18.15;10.10;;;;;;;2.92;91.94;94874.34;5097253;28;20213;-73
2022/01/03 03:49:38;;;;;;;18.88;9.20;;;;;;;3.01;90.96;94870.03;5112827;28;20202;-74
2022/01/03 03:52:06;;;;;;;18.02;8.95;;;;;;;2.73;91.33;94885.63;5114497;28;20329;-74
2022/01/03 03:54:34;;;;;;;18.50;9.45;;;;;;;2.70;91.70;94880.84;5114080;28;20303;-73
2022/01/03 03:57:01;;;;;;;20.73;10.27;;;;;;;2.84;92.15;94891.78;5114382;28;20274;-72
2022/01/03 03:59:29;;;;;;;30.80;10.60;;;;;;;2.87;91.31;94871.72;5114546;28;20212;-72
2022/01/03 04:01:57;;;;;;;19.08;8.95;;;;;;;2.85;91.91;94872.78;5114306;28;20213;-73
2022/01/03 04:04:26;;;;;;;17.08;8.90;;;;;;;2.69;91.99;94879.25;5100348;28;20206;-74
2022/01/03 04:06:53;;;;;;;21.17;9.57;;;;;;;2.50;91.99;94880.88;5114146;28;20226;-74
2022/01/03 04:09:20;;;;;;;19.02;9.77;;;;;;;2.49;92.63;94877.41;5100596;28;20259;-72
2022/01/03 04:11:47;;;;;;;23.33;10.80;;;;;;;2.46;93.00;94871.81;5113602;28;20225;-73
2022/01/03 04:14:14;;;;;;;27.15;12.18;;;;;;;2.52;92.92;94878.75;5114249;28;20209;-72
2022/01/03 04:16:41;;;;;;;21.05;10.50;;;;;;;2.65;93.19;94878.19;5113978;28;20209;-73
2022/01/03 04:19:08;;;;;;;23.60;11.68;;;;;;;2.63;92.80;94890.22;5113696;28;20208;-72
2022/01/03 04:21:39;;;;;;;33.88;10.63;;;;;;;2.60;92.35;94891.56;5113926;28;20194;-72
2022/01/03 04:24:07;;;;;;;19.63;10.23;;;;;;;2.64;92.49;94895.28;5114004;28;20197;-72
2022/01/03 04:26:33;;;;;;;18.48;9.18;;;;;;;2.77;92.93;94893.91;5113473;28;20317;-73
2022/01/03 04:29:01;;;;;;;23.90;9.75;;;;;;;2.54;91.59;94876.59;5099723;28;20703;-73
2022/01/03 04:31:28;;;;;;;14.25;7.18;;;;;;;2.47;91.17;94873.41;5113662;28;20287;-73
2022/01/03 04:33:55;;;;;;;24.30;11.38;;;;;;;2.40;92.71;94878.25;5113478;28;20205;-72
2022/01/03 04:36:22;;;;;;;19.38;10.00;;;;;;;2.38;92.24;94872.34;5112854;28;20210;-72
2022/01/03 04:38:51;;;;;;;18.48;9.07;;;;;;;2.34;92.87;94881.97;5113035;28;20193;-73
2022/01/03 04:41:18;;;;;;;20.58;10.05;;;;;;;2.26;92.76;94879.84;5101160;28;20245;-73
2022/01/03 04:43:45;;;;;;;20.75;10.38;;;;;;;2.37;92.81;94876.91;5106478;28;20213;-73
2022/01/03 04:46:12;;;;;;;19.02;8.88;;;;;;;2.55;92.54;94880.09;5105317;28;20225;-72
2022/01/03 04:48:41;;;;;;;17.90;9.43;;;;;;;2.34;91.68;94888.13;5113521;28;20716;-73
2022/01/03 04:51:09;;;;;;;20.27;10.20;;;;;;;2.17;92.30;94897.50;5113389;28;20217;-72
2022/01/03 04:53:39;;;;;;;14.57;8.57;;;;;;;2.14;92.11;94909.53;5113324;28;20205;-72
2022/01/03 04:56:08;;;;;;;20.33;9.77;;;;;;;2.10;92.66;94909.25;5113087;28;20214;-74
2022/01/03 04:58:35;;;;;;;16.25;8.77;;;;;;;2.26;92.59;94901.25;5112698;28;20774;-72
2022/01/03 05:01:02;;;;;;;17.48;9.75;;;;;;;2.38;92.11;94909.78;5113176;28;20210;-73
2022/01/03 05:03:29;;;;;;;15.15;8.30;;;;;;;2.40;92.42;94907.63;5113210;28;20544;-73
2022/01/03 05:05:56;;;;;;;24.65;9.40;;;;;;;2.38;91.95;94909.78;5112889;28;20592;-74
2022/01/03 05:08:23;;;;;;;20.63;10.32;;;;;;;2.41;92.40;94919.94;5112941;28;20218;-73
2022/01/03 05:10:50;;;;;;;18.80;9.02;;;;;;;2.39;90.98;94908.72;5112799;28;20194;-73
2022/01/03 05:13:18;;;;;;;11.07;6.63;;;;;;;2.25;91.39;94913.00;5112546;28;20204;-74
2022/01/03 05:15:45;;;;;;;14.02;7.88;;;;;;;2.18;91.52;94899.13;5113097;28;20205;-74
2022/01/03 05:18:12;;;;;;;18.17;8.35;;;;;;;2.16;92.05;94911.94;5112843;28;20216;-73
2022/01/03 05:20:39;;;;;;;22.92;8.95;;;;;;;2.02;92.63;94901.78;5112194;28;20241;-73
2022/01/03 05:23:06;;;;;;;20.50;9.00;;;;;;;2.16;92.69;94891.38;5104328;28;20199;-73
2022/01/03 05:25:33;;;;;;;17.33;9.57;;;;;;;2.14;92.95;94899.66;5107049;28;20222;-73
2022/01/03 05:28:00;;;;;;;18.98;8.93;;;;;;;2.33;92.21;94885.72;5111681;28;20277;-73
2022/01/03 05:30:28;;;;;;;15.98;7.60;;;;;;;2.35;92.74;94886.25;5096948;28;20202;-73
2022/01/03 05:32:55;;;;;;;15.43;7.93;;;;;;;2.25;93.24;94892.41;5100881;28;20660;-73
2022/01/03 05:35:22;;;;;;;24.38;10.20;;;;;;;1.93;93.11;94899.91;5112366;28;20254;-73
2022/01/03 05:37:49;;;;;;;20.52;9.93;;;;;;;1.96;93.89;94892.16;5112624;28;20197;-74
2022/01/03 05:40:16;;;;;;;21.85;10.23;;;;;;;2.07;93.61;94888.41;5111656;28;20206;-73
2022/01/03 05:42:46;;;;;;;27.27;10.45;;;;;;;2.16;93.76;94885.22;5102348;28;20249;-73
2022/01/03 05:45:13;;;;;;;20.15;9.57;;;;;;;2.22;93.92;94873.44;5107429;28;20224;-73
2022/01/03 05:47:44;;;;;;;23.75;10.43;;;;;;;2.31;93.20;94882.53;5112366;28;20202;-74
2022/01/03 05:50:11;;;;;;;19.25;9.43;;;;;;;2.11;92.14;94891.34;5112346;28;20639;-72
2022/01/03 05:52:38;;;;;;;17.10;8.68;;;;;;;2.18;91.68;94888.44;5111168;28;20205;-72
2022/01/03 05:55:06;;;;;;;16.10;8.15;;;;;;;2.14;91.91;94891.63;5110341;28;20695;-74
2022/01/03 05:57:33;;;;;;;16.58;9.18;;;;;;;2.23;92.01;94885.72;5107728;28;20211;-72
2022/01/03 06:00:00;;;;;;;16.33;8.75;;;;;;;2.19;92.06;94890.03;5110632;28;20250;-72
2022/01/03 06:02:30;;;;;;;15.90;8.52;;;;;;;2.31;92.00;94882.53;5111695;28;20293;-73
2022/01/03 06:05:01;;;;;;;18.27;8.25;;;;;;;2.36;92.24;94887.84;5112259;28;20198;-72
2022/01/03 06:07:28;;;;;;;18.60;9.57;;;;;;;2.48;91.88;94889.16;5111649;28;20224;-74
2022/01/03 06:09:55;;;;;;;15.85;8.25;;;;;;;2.54;91.43;94898.00;5111600;28;20209;-72
2022/01/03 06:12:22;;;;;;;16.45;7.57;;;;;;;2.47;90.92;94898.25;5111048;28;20328;-73
2022/01/03 06:14:49;;;;;;;14.85;7.30;;;;;;;2.53;90.88;94904.41;5110955;28;20197;-74
2022/01/03 06:17:17;;;;;;;14.88;8.43;;;;;;;2.58;90.85;94898.25;5111790;28;20210;-73
2022/01/03 06:19:45;;;;;;;15.23;8.65;;;;;;;2.67;91.24;94908.13;5111956;28;20201;-73
2022/01/03 06:22:13;;;;;;;11.63;7.07;;;;;;;2.76;90.58;94911.84;5112000;28;20205;-73
2022/01/03 06:24:41;;;;;;;14.85;7.75;;;;;;;3.06;90.40;94910.16;5111259;28;20197;-73
2022/01/03 06:27:08;;;;;;;13.38;8.00;;;;;;;3.06;88.91;94905.59;5111313;28;20699;-73
2022/01/03 06:29:35;;;;;;;14.88;7.85;;;;;;;3.10;88.59;94911.22;5111240;28;20213;-72
2022/01/03 06:32:03;;;;;;;16.98;8.40;;;;;;;2.94;88.81;94915.00;5110459;28;20560;-72
2022/01/03 06:34:30;;;;;;;19.73;8.07;;;;;;;2.77;88.89;94913.44;5110181;28;20197;-73
2022/01/03 06:36:57;;;;;;;17.50;8.50;;;;;;;2.67;89.77;94918.81;5110565;28;20243;-73
2022/01/03 06:39:25;;;;;;;15.90;8.02;;;;;;;2.71;90.23;94911.88;5110192;28;20186;-73
2022/01/03 06:41:52;;;;;;;27.00;15.75;;;;;;;2.60;90.72;94902.25;5110235;28;20225;-73
2022/01/03 06:44:19;;;;;;;23.42;12.23;;;;;;;2.76;90.89;94905.69;5110728;28;20204;-73
2022/01/03 06:46:47;;;;;;;21.77;10.80;;;;;;;2.84;90.79;94905.94;5107988;28;20229;-73
2022/01/03 06:49:14;;;;;;;21.75;11.63;;;;;;;2.96;90.72;94899.50;5110500;28;20564;-73
2022/01/03 06:51:41;;;;;;;26.67;14.30;;;;;;;3.03;90.09;94900.78;5109570;28;20208;-73
2022/01/03 06:54:11;;;;;;;23.92;13.70;;;;;;;3.11;90.10;94902.13;5110771;28;20717;-72
2022/01/03 06:56:41;;;;;;;34.88;18.02;;;;;;;3.26;90.07;94891.34;5110541;28;20253;-73
2022/01/03 06:59:08;;;;;;;28.15;15.00;;;;;;;3.30;89.50;94887.03;5111089;28;20288;-73
2022/01/03 07:01:35;;;;;;;29.40;14.43;;;;;;;3.28;89.82;94894.53;5110999;28;20209;-73
2022/01/03 07:04:02;;;;;;;32.22;15.82;;;;;;;3.30;90.08;94889.69;5110612;28;20904;-73
2022/01/03 07:06:30;;;;;;;21.27;10.35;;;;;;;3.21;89.73;94902.06;5110669;28;20229;-73
2022/01/03 07:08:57;;;;;;;19.85;10.82;;;;;;;3.05;90.33;94908.56;5110766;28;20197;-74
2022/01/03 07:11:24;;;;;;;22.10;11.43;;;;;;;3.13;91.01;94900.78;5111201;28;20335;-73
2022/01/03 07:14:04;;;;;;;24.33;12.43;;;;;;;3.30;90.71;94897.72;5110416;28;20681;-72
2022/01/03 07:19:30;;;;;;;26.77;11.00;;;;;;;3.58;90.77;94899.72;5066634;28;20206;-74
2022/01/03 07:21:57;;;;;;;24.13;12.98;;;;;;;3.84;90.07;94899.56;5066283;28;20203;-73
2022/01/03 07:24:24;;;;;;;20.40;10.75;;;;;;;4.01;89.10;94889.25;5085295;28;20341;-75
2022/01/03 07:26:51;;;;;;;22.17;11.45;;;;;;;4.16;88.32;94878.44;5113736;28;20229;-74
2022/01/03 07:29:19;;;;;;;30.33;13.65;;;;;;;4.21;88.65;94880.28;5113752;28;20201;-74
2022/01/03 07:31:46;;;;;;;33.83;16.13;;;;;;;4.37;88.47;94856.81;5113769;28;20672;-74
2022/01/03 07:34:13;;;;;;;29.08;14.15;;;;;;;4.48;88.67;94861.00;5113925;28;20331;-74
2022/01/03 07:36:39;;;;;;;26.13;15.60;;;;;;;4.64;88.29;94865.91;5114383;28;20594;-76
2022/01/03 07:39:07;;;;;;;23.23;13.55;;;;;;;4.80;87.47;94855.00;5097557;28;20193;-76
2022/01/03 07:41:33;;;;;;;38.50;16.58;;;;;;;4.79;87.73;94848.84;5113474;28;20252;-75
2022/01/03 07:44:00;;;;;;;34.60;15.68;;;;;;;4.94;87.56;94859.41;5114102;28;20197;-75
2022/01/03 07:46:29;;;;;;;28.85;13.20;;;;;;;5.06;87.58;94866.28;5113844;28;20225;-73
2022/01/03 07:48:56;;;;;;;17.17;8.55;;;;;;;5.10;86.54;94870.75;5114538;28;20209;-74
2022/01/03 07:51:23;;;;;;;22.40;12.13;;;;;;;4.98;87.08;94876.53;5113646;28;20204;-75
2022/01/03 07:53:50;;;;;;;16.15;7.97;;;;;;;4.87;87.36;94885.78;5113961;28;20571;-73
2022/01/03 07:56:18;;;;;;;14.35;8.75;;;;;;;4.85;87.41;94887.97;5114049;28;20209;-75
2022/01/03 07:58:45;;;;;;;27.20;12.38;;;;;;;4.97;88.04;94885.66;5104741;28;20225;-75
2022/01/03 08:01:12;;;;;;;25.17;13.73;;;;;;;5.27;87.42;94872.97;5109046;28;20899;-75
2022/01/03 08:03:40;;;;;;;26.70;12.75;;;;;;;5.33;85.77;94871.81;5112952;28;20197;-74
2022/01/03 08:06:09;;;;;;;31.55;15.35;;;;;;;5.43;85.71;94871.69;5113062;28;20197;-73
2022/01/03 08:08:37;;;;;;;31.13;16.25;;;;;;;5.71;85.74;94861.91;5113210;28;20209;-75
2022/01/03 08:11:04;;;;;;;30.98;15.38;;;;;;;5.93;84.47;94869.41;5113436;28;20209;-75
2022/01/03 08:13:31;;;;;;;25.33;13.00;;;;;;;6.00;83.68;94875.22;5113338;28;20202;-75
2022/01/03 08:15:58;;;;;;;24.60;14.73;;;;;;;6.06;83.91;94879.41;5113069;28;20283;-76
2022/01/03 08:18:25;;;;;;;25.13;13.77;;;;;;;6.14;82.27;94880.66;5112829;28;20687;-74
2022/01/03 08:20:53;;;;;;;22.90;12.75;;;;;;;6.20;82.38;94879.47;5099478;28;21025;-77
2022/01/03 08:23:20;;;;;;;23.92;11.32;;;;;;;6.64;81.79;94868.22;5113579;28;20282;-74
2022/01/03 08:25:47;;;;;;;26.60;15.38;;;;;;;7.20;85.72;94869.88;5113221;28;20217;-74
2022/01/03 08:28:14;;;;;;;22.40;9.63;;;;;;;7.36;78.64;94868.47;5113218;28;20225;-73
2022/01/03 08:30:41;;;;;;;16.23;9.93;;;;;;;7.32;78.03;94862.06;5108427;28;20202;-74
2022/01/03 08:33:08;;;;;;;18.00;10.00;;;;;;;7.23;78.71;94863.88;5104307;28;20660;-75
2022/01/03 08:35:35;;;;;;;18.45;9.93;;;;;;;7.43;78.09;94858.06;5112265;28;20601;-75
2022/01/03 08:38:04;;;;;;;18.25;9.50;;;;;;;7.48;76.97;94855.28;5112581;28;20216;-72
2022/01/03 08:40:32;;;;;;;17.88;9.25;;;;;;;7.63;76.57;94849.56;5112924;28;20228;-75
2022/01/03 08:42:59;;;;;;;13.10;8.25;;;;;;;7.63;75.99;94863.03;5113423;28;20316;-74
2022/01/03 08:45:26;;;;;;;18.45;9.35;;;;;;;8.00;76.13;94839.53;5113060;28;20201;-74
2022/01/03 08:47:53;;;;;;;15.43;8.32;;;;;;;8.15;75.22;94829.19;5113115;28;20229;-74
2022/01/03 08:50:20;;;;;;;15.80;8.68;;;;;;;8.23;74.83;94833.03;5113099;28;20204;-74
2022/01/03 08:52:47;;;;;;;15.10;8.02;;;;;;;8.27;74.39;94823.22;5112900;28;20232;-74
2022/01/03 08:55:16;;;;;;;16.58;7.72;;;;;;;8.30;74.39;94805.63;5111870;28;20288;-74
2022/01/03 08:57:44;;;;;;;14.50;7.57;;;;;;;8.27;74.54;94790.84;5098703;28;20222;-74
2022/01/03 09:00:12;;;;;;;20.10;9.57;;;;;;;8.34;75.68;94796.63;5104532;28;20210;-72
2022/01/03 09:02:41;;;;;;;26.25;10.43;;;;;;;8.29;74.06;94783.25;5105964;28;20205;-72
2022/01/03 09:05:08;;;;;;;19.55;10.75;;;;;;;8.44;74.73;94796.38;5111361;28;20229;-73
2022/01/03 09:07:36;;;;;;;15.55;8.45;;;;;;;8.44;74.04;94790.97;5111504;28;20778;-74
2022/01/03 09:10:03;;;;;;;18.27;9.57;;;;;;;8.13;73.65;94793.63;5110957;28;20194;-73
2022/01/03 09:12:31;;;;;;;17.23;8.45;;;;;;;8.33;73.97;94799.66;5111346;28;20194;-72
2022/01/03 09:14:58;;;;;;;13.73;8.70;;;;;;;8.47;73.45;94797.66;5111108;28;20197;-74
2022/01/03 09:17:25;;;;;;;15.75;10.50;;;;;;;8.84;73.41;94793.69;5111533;28;20224;-75
2022/01/03 09:19:53;;;;;;;21.10;12.35;;;;;;;8.95;73.15;94791.50;5111113;28;20206;-74
2022/01/03 09:22:24;;;;;;;19.23;11.73;;;;;;;9.00;71.56;94792.16;5111528;28;20194;-73
2022/01/03 09:28:48;;;;;;;15.55;10.40;;;;;;;8.86;71.76;94794.19;5111423;28;20221;-75
2022/01/03 09:30:27;;;;;;;17.65;11.07;;;;;;;9.36;71.60;94770.31;5111124;28;20212;-74
2022/01/03 09:32:53;;;;;;;18.13;10.80;;;;;;;9.67;69.06;94772.88;5111542;28;20198;-75
2022/01/03 09:35:21;;;;;;;16.98;11.15;;;;;;;9.77;68.89;94763.66;5111430;28;20205;-74
2022/01/03 09:37:48;;;;;;;18.88;10.93;;;;;;;9.95;68.23;94757.91;5110544;28;20316;-74
2022/01/03 09:40:17;;;;;;;17.05;10.90;;;;;;;10.10;68.47;94753.13;5110535;28;20202;-75
2022/01/03 09:42:50;;;;;;;17.33;11.30;;;;;;;10.33;68.49;94749.09;5110702;28;20368;-73
2022/01/03 09:45:17;;;;;;;17.95;11.30;;;;;;;10.33;66.60;94738.28;5097588;28;20209;-74
2022/01/03 09:47:46;;;;;;;16.08;11.43;;;;;;;10.42;66.17;94739.03;5110141;28;20319;-74
2022/01/03 09:50:17;;;;;;;16.67;11.13;;;;;;;10.50;65.68;94735.53;5110669;28;20205;-75
2022/01/03 09:52:47;;;;;;;17.38;11.00;;;;;;;10.30;65.60;94741.63;5110463;28;20562;-74
2022/01/03 09:55:15;;;;;;;21.85;12.57;;;;;;;10.46;68.41;94739.19;5111149;28;20198;-73
2022/01/03 09:57:45;;;;;;;22.13;12.90;;;;;;;10.96;65.09;94720.31;5110592;28;20212;-73
2022/01/03 10:00:15;;;;;;;23.40;14.32;;;;;;;11.17;64.10;94709.53;5103695;28;20661;-74
2022/01/03 10:02:44;;;;;;;23.38;12.45;;;;;;;11.61;64.14;94708.09;5105120;28;20213;-77
2022/01/03 10:05:11;;;;;;;19.90;12.90;;;;;;;11.24;63.31;94699.72;5110723;28;20205;-73
2022/01/03 10:07:40;;;;;;;26.00;12.63;;;;;;;10.86;63.95;94699.03;5110070;28;20634;-74
2022/01/03 10:10:08;;;;;;;19.30;12.10;;;;;;;10.85;63.31;94702.84;5110092;28;20213;-74
2022/01/03 10:12:36;;;;;;;17.38;11.27;;;;;;;11.01;63.12;94685.69;5107231;28;20233;-74
2022/01/03 10:15:07;;;;;;;18.08;11.25;;;;;;;11.09;62.60;94692.19;5099521;28;20258;-75
2022/01/03 10:17:37;;;;;;;17.20;11.15;;;;;;;10.99;62.63;94687.16;5110120;28;20200;-72
2022/01/03 10:20:09;;;;;;;19.55;11.50;;;;;;;11.25;62.17;94682.34;5110200;28;20659;-72
2022/01/03 10:22:36;;;;;;;16.48;11.18;;;;;;;11.60;61.89;94673.94;5110436;28;20278;-73
2022/01/03 10:25:12;;;;;;;20.45;13.15;;;;;;;11.64;62.56;94674.84;5110087;28;20204;-74
2022/01/03 10:27:47;;;;;;;23.52;13.52;;;;;;;11.80;61.20;94667.72;5097120;28;20225;-72
2022/01/03 10:30:16;;;;;;;20.58;13.00;;;;;;;11.89;61.36;94673.06;5110312;28;20191;-73
2022/01/03 10:32:52;;;;;;;21.05;13.50;;;;;;;11.35;62.87;94673.81;5110539;28;20206;-72
2022/01/03 10:35:19;;;;;;;21.45;14.10;;;;;;;11.14;63.57;94667.59;5096483;28;20221;-72
2022/01/03 10:37:46;;;;;;;21.42;12.68;;;;;;;11.22;62.27;94653.16;5110174;28;20201;-72
2022/01/03 10:40:25;;;;;;;20.95;14.57;;;;;;;10.97;63.67;94648.72;5110245;28;20206;-73
2022/01/03 10:42:52;;;;;;;28.55;19.23;;;;;;;10.84;64.15;94641.63;5109635;28;20553;-73
2022/01/03 10:45:32;;;;;;;32.05;20.38;;;;;;;10.47;65.16;94648.72;5109457;28;20197;-74
2022/01/03 10:48:01;;;;;;;32.05;19.05;;;;;;;10.35;65.63;94641.28;5110477;28;20282;-73
2022/01/03 10:50:29;;;;;;;31.17;18.88;;;;;;;10.69;66.04;94632.16;5109328;28;20228;-73
2022/01/03 10:52:57;;;;;;;29.80;16.40;;;;;;;11.01;63.40;94627.97;5108738;28;20201;-72
2022/01/03 10:55:30;;;;;;;28.17;16.52;;;;;;;10.96;63.80;94622.75;5109473;28;20201;-72
2022/01/03 10:57:59;;;;;;;29.90;19.02;;;;;;;10.81;64.04;94612.47;5109808;28;20202;-73
2022/01/03 11:00:30;;;;;;;32.00;19.15;;;;;;;10.86;64.63;94612.31;5111312;28;20261;-73
2022/01/03 11:03:22;;;;;;;28.88;18.25;;;;;;;10.82;64.41;94608.66;5113586;28;20672;-74
2022/01/03 11:05:53;;;;;;;30.20;18.52;;;;;;;10.91;64.14;94593.16;5108630;28;20225;-74
2022/01/03 11:11:08;;;;;;;28.58;15.48;;;;;;;10.62;64.35;94597.47;5113330;28;20193;-74
2022/01/03 11:13:39;;;;;;;26.98;15.13;;;;;;;10.69;65.02;94595.03;5113592;28;20197;-74
2022/01/03 11:16:08;;;;;;;24.40;14.85;;;;;;;10.29;65.52;94599.25;5112451;28;20194;-72
2022/01/03 11:18:38;;;;;;;25.42;15.32;;;;;;;10.26;66.32;94594.47;5115162;28;20251;-73
2022/01/03 11:21:11;;;;;;;25.40;15.32;;;;;;;10.14;66.87;94594.34;5113065;28;20641;-73
2022/01/03 11:23:39;;;;;;;26.90;15.93;;;;;;;9.85;67.63;94585.06;5114337;28;20597;-72
2022/01/03 11:26:08;;;;;;;23.35;15.43;;;;;;;10.16;67.54;94578.59;5114785;28;20220;-73
2022/01/03 11:28:35;;;;;;;29.30;15.55;;;;;;;10.43;66.67;94561.91;5114257;28;20217;-72
2022/01/03 11:31:03;;;;;;;29.92;17.60;;;;;;;10.59;65.96;94560.22;5114364;28;20213;-72
2022/01/03 11:33:31;;;;;;;25.95;15.93;;;;;;;10.68;65.64;94563.66;5113586;28;20200;-72
2022/01/03 11:36:01;;;;;;;24.85;15.85;;;;;;;10.98;65.45;94552.75;5109594;28;20678;-74
2022/01/03 11:38:30;;;;;;;26.40;16.08;;;;;;;10.84;65.61;94553.00;5113264;28;20637;-73
2022/01/03 11:41:00;;;;;;;25.77;16.80;;;;;;;11.11;64.41;94554.38;5110039;28;20225;-73